sensor_id;sensor_type;location;lat;lon;timestamp;pressure;altitude;pressure_sealevel;temperature;humidity
57234;BME280;43090;52.604;13.318;2023-05-20T00:02:17;102119.84;;;11.83;69.26
57234;BME280;43090;52.604;13.318;2023-05-20T00:04:44;102124.56;;;11.95;68.89
57234;BME280;43090;52.604;13.318;2023-05-20T00:07:11;102114.13;;;11.89;68.66
57234;BME280;43090;52.604;13.318;2023-05-20T00:09:38;102118.25;;;11.96;69.04
57234;BME280;43090;52.604;13.318;2023-05-20T00:12:05;102126.13;;;11.99;68.88
57234;BME280;43090;52.604;13.318;2023-05-20T00:14:31;102112.56;;;11.85;69.20
57234;BME280;43090;52.604;13.318;2023-05-20T00:16:58;102099.84;;;11.89;68.67
57234;BME280;43090;52.604;13.318;2023-05-20T00:19:24;102119.03;;;11.98;69.09
57234;BME280;43090;52.604;13.318;2023-05-20T00:21:51;102112.22;;;11.75;70.00
57234;BME280;43090;52.604;13.318;2023-05-20T00:24:18;102131.22;;;11.88;69.89
57234;BME280;43090;52.604;13.318;2023-05-20T00:26:44;102115.78;;;11.92;69.04
57234;BME280;43090;52.604;13.318;2023-05-20T00:29:11;102118.41;;;11.93;69.38
57234;BME280;43090;52.604;13.318;2023-05-20T00:31:37;102113.03;;;11.93;69.30
57234;BME280;43090;52.604;13.318;2023-05-20T00:34:04;102122.50;;;12.00;69.21
57234;BME280;43090;52.604;13.318;2023-05-20T00:36:30;102106.41;;;11.67;70.16
57234;BME280;43090;52.604;13.318;2023-05-20T00:38:57;102124.06;;;11.71;70.39
57234;BME280;43090;52.604;13.318;2023-05-20T00:41:23;102124.06;;;11.71;70.59
57234;BME280;43090;52.604;13.318;2023-05-20T00:43:53;102127.47;;;11.75;70.84
57234;BME280;43090;52.604;13.318;2023-05-20T00:46:21;102118.78;;;11.70;70.86
57234;BME280;43090;52.604;13.318;2023-05-20T00:48:49;102118.63;;;11.73;70.83
57234;BME280;43090;52.604;13.318;2023-05-20T00:51:16;102129.66;;;11.84;70.58
57234;BME280;43090;52.604;13.318;2023-05-20T00:53:43;102106.41;;;11.67;70.17
57234;BME280;43090;52.604;13.318;2023-05-20T00:56:10;102110.97;;;11.65;70.52
57234;BME280;43090;52.604;13.318;2023-05-20T00:58:37;102126.34;;;11.79;70.69
57234;BME280;43090;52.604;13.318;2023-05-20T01:01:05;102115.00;;;11.74;71.10
57234;BME280;43090;52.604;13.318;2023-05-20T01:03:32;102110.75;;;11.70;71.06
57234;BME280;43090;52.604;13.318;2023-05-20T01:05:59;102115.13;;;11.71;70.78
57234;BME280;43090;52.604;13.318;2023-05-20T01:08:26;102101.19;;;11.64;71.15
57234;BME280;43090;52.604;13.318;2023-05-20T01:11:01;102100.25;;;11.65;71.15
57234;BME280;43090;52.604;13.318;2023-05-20T01:13:33;102110.66;;;11.71;71.50
57234;BME280;43090;52.604;13.318;2023-05-20T01:16:03;102095.72;;;11.65;71.73
57234;BME280;43090;52.604;13.318;2023-05-20T01:18:31;102104.75;;;11.64;71.49
57234;BME280;43090;52.604;13.318;2023-05-20T01:20:58;102112.25;;;11.58;72.06
57234;BME280;43090;52.604;13.318;2023-05-20T01:23:45;102104.97;;;11.60;72.12
57234;BME280;43090;52.604;13.318;2023-05-20T01:26:12;102110.03;;;11.66;71.83
57234;BME280;43090;52.604;13.318;2023-05-20T01:28:39;102110.22;;;11.63;71.82
57234;BME280;43090;52.604;13.318;2023-05-20T01:31:10;102112.97;;;11.44;73.26
57234;BME280;43090;52.604;13.318;2023-05-20T01:33:40;102102.72;;;11.52;72.76
57234;BME280;43090;52.604;13.318;2023-05-20T01:51:25;102087.84;;;10.40;78.88
57234;BME280;43090;52.604;13.318;2023-05-20T01:53:51;102093.38;;;10.73;77.92
57234;BME280;43090;52.604;13.318;2023-05-20T01:56:18;102087.22;;;10.89;77.31
57234;BME280;43090;52.604;13.318;2023-05-20T01:58:44;102095.97;;;11.10;76.70
57234;BME280;43090;52.604;13.318;2023-05-20T02:01:11;102085.56;;;11.21;76.23
57234;BME280;43090;52.604;13.318;2023-05-20T02:03:37;102081.16;;;11.20;76.13
57234;BME280;43090;52.604;13.318;2023-05-20T02:06:04;102078.72;;;11.15;76.27
57234;BME280;43090;52.604;13.318;2023-05-20T02:08:31;102076.91;;;11.16;76.05
57234;BME280;43090;52.604;13.318;2023-05-20T02:10:57;102079.09;;;11.25;75.68
57234;BME280;43090;52.604;13.318;2023-05-20T02:13:24;102071.84;;;11.27;75.21
57234;BME280;43090;52.604;13.318;2023-05-20T02:15:50;102067.28;;;11.12;76.50
57234;BME280;43090;52.604;13.318;2023-05-20T02:18:17;102074.53;;;11.27;75.74
57234;BME280;43090;52.604;13.318;2023-05-20T02:20:44;102074.00;;;11.21;76.32
57234;BME280;43090;52.604;13.318;2023-05-20T02:23:10;102080.22;;;11.21;76.34
57234;BME280;43090;52.604;13.318;2023-05-20T02:25:37;102088.41;;;11.36;75.38
57234;BME280;43090;52.604;13.318;2023-05-20T02:28:03;102090.63;;;11.27;75.80
57234;BME280;43090;52.604;13.318;2023-05-20T02:30:31;102068.38;;;11.25;75.49
57234;BME280;43090;52.604;13.318;2023-05-20T02:32:57;102086.28;;;11.07;77.36
57234;BME280;43090;52.604;13.318;2023-05-20T02:35:25;102080.13;;;11.23;75.97
57234;BME280;43090;52.604;13.318;2023-05-20T02:37:51;102091.50;;;11.10;76.66
57234;BME280;43090;52.604;13.318;2023-05-20T02:40:18;102085.81;;;10.99;77.48
57234;BME280;43090;52.604;13.318;2023-05-20T02:42:44;102092.81;;;11.02;77.19
57234;BME280;43090;52.604;13.318;2023-05-20T02:45:11;102077.69;;;11.00;77.06
57234;BME280;43090;52.604;13.318;2023-05-20T02:47:38;102078.72;;;10.98;76.07
57234;BME280;43090;52.604;13.318;2023-05-20T02:50:05;102089.59;;;10.95;76.77
57234;BME280;43090;52.604;13.318;2023-05-20T02:52:32;102080.44;;;10.99;76.24
57234;BME280;43090;52.604;13.318;2023-05-20T02:54:59;102084.88;;;11.00;76.47
57234;BME280;43090;52.604;13.318;2023-05-20T02:57:26;102100.88;;;11.02;76.68
57234;BME280;43090;52.604;13.318;2023-05-20T02:59:54;102092.13;;;11.15;75.70
57234;BME280;43090;52.604;13.318;2023-05-20T03:02:20;102080.63;;;10.96;75.71
57234;BME280;43090;52.604;13.318;2023-05-20T03:04:48;102085.50;;;11.05;75.38
57234;BME280;43090;52.604;13.318;2023-05-20T03:07:16;102087.38;;;11.03;75.45
57234;BME280;43090;52.604;13.318;2023-05-20T03:09:45;102097.78;;;11.09;75.08
57234;BME280;43090;52.604;13.318;2023-05-20T03:12:11;102096.75;;;10.77;76.13
57234;BME280;43090;52.604;13.318;2023-05-20T03:14:37;102097.25;;;10.85;76.23
57234;BME280;43090;52.604;13.318;2023-05-20T03:17:04;102105.13;;;10.88;75.97
57234;BME280;43090;52.604;13.318;2023-05-20T03:19:31;102108.53;;;10.92;75.75
57234;BME280;43090;52.604;13.318;2023-05-20T03:21:57;102105.97;;;10.89;76.33
57234;BME280;43090;52.604;13.318;2023-05-20T03:24:24;102106.13;;;11.03;75.89
57234;BME280;43090;52.604;13.318;2023-05-20T03:26:50;102117.66;;;10.88;76.13
57234;BME280;43090;52.604;13.318;2023-05-20T03:29:17;102109.56;;;10.53;78.13
57234;BME280;43090;52.604;13.318;2023-05-20T03:31:43;102106.22;;;10.66;77.92
57234;BME280;43090;52.604;13.318;2023-05-20T03:34:10;102112.34;;;10.69;77.94
57234;BME280;43090;52.604;13.318;2023-05-20T03:36:36;102112.13;;;10.73;77.63
57234;BME280;43090;52.604;13.318;2023-05-20T03:39:03;102119.63;;;10.47;78.56
57234;BME280;43090;52.604;13.318;2023-05-20T03:41:30;102109.91;;;10.45;78.92
57234;BME280;43090;52.604;13.318;2023-05-20T03:43:57;102110.13;;;10.59;78.17
57234;BME280;43090;52.604;13.318;2023-05-20T03:46:23;102113.63;;;10.42;79.50
57234;BME280;43090;52.604;13.318;2023-05-20T03:48:50;102116.59;;;10.73;78.03
57234;BME280;43090;52.604;13.318;2023-05-20T03:51:16;102111.75;;;10.44;79.22
57234;BME280;43090;52.604;13.318;2023-05-20T03:53:43;102110.38;;;10.36;79.66
57234;BME280;43090;52.604;13.318;2023-05-20T03:56:09;102116.94;;;10.66;78.70
57234;BME280;43090;52.604;13.318;2023-05-20T03:58:36;102110.94;;;10.79;77.93
57234;BME280;43090;52.604;13.318;2023-05-20T04:01:04;102120.25;;;10.72;78.49
57234;BME280;43090;52.604;13.318;2023-05-20T04:03:30;102117.03;;;10.82;78.24
57234;BME280;43090;52.604;13.318;2023-05-20T04:05:57;102128.59;;;11.00;78.07
57234;BME280;43090;52.604;13.318;2023-05-20T04:08:23;102108.44;;;10.76;78.30
57234;BME280;43090;52.604;13.318;2023-05-20T04:10:55;102113.16;;;10.88;77.90
57234;BME280;43090;52.604;13.318;2023-05-20T04:13:21;102117.63;;;10.70;79.42
57234;BME280;43090;52.604;13.318;2023-05-20T04:15:51;102114.75;;;10.92;78.91
57234;BME280;43090;52.604;13.318;2023-05-20T04:18:18;102117.19;;;10.97;78.13
57234;BME280;43090;52.604;13.318;2023-05-20T04:20:45;102123.06;;;10.86;79.04
57234;BME280;43090;52.604;13.318;2023-05-20T04:23:12;102109.06;;;10.81;78.19
57234;BME280;43090;52.604;13.318;2023-05-20T04:25:39;102122.78;;;10.92;78.36
57234;BME280;43090;52.604;13.318;2023-05-20T04:28:07;102109.84;;;10.83;79.10
57234;BME280;43090;52.604;13.318;2023-05-20T04:30:36;102112.59;;;10.99;78.51
57234;BME280;43090;52.604;13.318;2023-05-20T04:33:02;102101.50;;;10.89;78.68
57234;BME280;43090;52.604;13.318;2023-05-20T04:35:29;102107.59;;;11.10;78.15
57234;BME280;43090;52.604;13.318;2023-05-20T04:37:55;102106.13;;;10.86;79.19
57234;BME280;43090;52.604;13.318;2023-05-20T04:40:22;102107.50;;;10.94;79.60
57234;BME280;43090;52.604;13.318;2023-05-20T04:42:48;102110.81;;;10.99;79.34
57234;BME280;43090;52.604;13.318;2023-05-20T04:45:15;102115.84;;;11.06;79.17
57234;BME280;43090;52.604;13.318;2023-05-20T04:47:42;102120.44;;;11.04;79.41
57234;BME280;43090;52.604;13.318;2023-05-20T04:50:10;102120.25;;;10.89;80.16
57234;BME280;43090;52.604;13.318;2023-05-20T04:52:38;102124.59;;;11.09;79.65
57234;BME280;43090;52.604;13.318;2023-05-20T04:55:06;102121.13;;;11.07;79.67
57234;BME280;43090;52.604;13.318;2023-05-20T04:57:35;102116.00;;;11.03;80.24
57234;BME280;43090;52.604;13.318;2023-05-20T05:00:05;102116.00;;;10.85;80.52
57234;BME280;43090;52.604;13.318;2023-05-20T05:02:34;102115.06;;;11.04;80.53
57234;BME280;43090;52.604;13.318;2023-05-20T05:05:00;102111.50;;;10.86;81.55
57234;BME280;43090;52.604;13.318;2023-05-20T05:07:27;102106.06;;;10.87;81.68
57234;BME280;43090;52.604;13.318;2023-05-20T05:09:53;102108.91;;;10.84;82.50
57234;BME280;43090;52.604;13.318;2023-05-20T05:12:20;102104.25;;;10.88;82.49
57234;BME280;43090;52.604;13.318;2023-05-20T05:14:46;102104.19;;;11.07;81.77
57234;BME280;43090;52.604;13.318;2023-05-20T05:17:13;102098.25;;;11.17;81.52
57234;BME280;43090;52.604;13.318;2023-05-20T05:19:39;102103.25;;;11.08;82.09
57234;BME280;43090;52.604;13.318;2023-05-20T05:22:06;102093.38;;;10.91;82.33
57234;BME280;43090;52.604;13.318;2023-05-20T05:24:32;102103.94;;;10.94;83.27
57234;BME280;43090;52.604;13.318;2023-05-20T05:26:59;102084.16;;;10.79;84.21
57234;BME280;43090;52.604;13.318;2023-05-20T05:29:25;102095.69;;;10.98;83.97
57234;BME280;43090;52.604;13.318;2023-05-20T05:31:52;102098.59;;;11.11;83.69
57234;BME280;43090;52.604;13.318;2023-05-20T05:34:18;102095.19;;;11.08;84.16
57234;BME280;43090;52.604;13.318;2023-05-20T05:36:45;102094.81;;;11.15;83.68
57234;BME280;43090;52.604;13.318;2023-05-20T05:39:11;102105.91;;;11.25;83.04
57234;BME280;43090;52.604;13.318;2023-05-20T05:41:38;102100.56;;;11.08;84.25
57234;BME280;43090;52.604;13.318;2023-05-20T05:44:04;102111.72;;;11.33;83.40
57234;BME280;43090;52.604;13.318;2023-05-20T05:46:31;102110.00;;;11.15;84.24
57234;BME280;43090;52.604;13.318;2023-05-20T05:48:58;102101.34;;;11.27;83.84
57234;BME280;43090;52.604;13.318;2023-05-20T05:51:26;102100.69;;;11.40;82.90
57234;BME280;43090;52.604;13.318;2023-05-20T05:53:54;102092.50;;;11.25;83.81
57234;BME280;43090;52.604;13.318;2023-05-20T05:56:20;102092.72;;;11.38;84.14
57234;BME280;43090;52.604;13.318;2023-05-20T05:58:47;102092.66;;;11.40;84.12
57234;BME280;43090;52.604;13.318;2023-05-20T06:01:13;102085.53;;;11.39;84.54
57234;BME280;43090;52.604;13.318;2023-05-20T06:03:40;102089.84;;;11.59;84.58
57234;BME280;43090;52.604;13.318;2023-05-20T06:06:07;102085.94;;;11.48;85.23
57234;BME280;43090;52.604;13.318;2023-05-20T06:08:33;102073.75;;;11.59;84.37
57234;BME280;43090;52.604;13.318;2023-05-20T06:11:00;102069.38;;;11.74;84.23
57234;BME280;43090;52.604;13.318;2023-05-20T06:13:26;102086.44;;;11.89;83.93
57234;BME280;43090;52.604;13.318;2023-05-20T06:15:53;102063.22;;;11.72;84.08
57234;BME280;43090;52.604;13.318;2023-05-20T06:18:19;102064.63;;;11.79;83.77
57234;BME280;43090;52.604;13.318;2023-05-20T06:20:53;102067.16;;;11.98;83.08
57234;BME280;43090;52.604;13.318;2023-05-20T06:23:20;102059.97;;;11.98;82.64
57234;BME280;43090;52.604;13.318;2023-05-20T06:25:46;102077.47;;;12.06;82.56
57234;BME280;43090;52.604;13.318;2023-05-20T06:28:14;102057.88;;;11.88;83.14
57234;BME280;43090;52.604;13.318;2023-05-20T06:30:40;102084.22;;;11.97;83.16
57234;BME280;43090;52.604;13.318;2023-05-20T06:33:07;102073.44;;;11.81;83.82
57234;BME280;43090;52.604;13.318;2023-05-20T06:35:34;102089.44;;;12.16;82.87
57234;BME280;43090;52.604;13.318;2023-05-20T06:38:01;102076.06;;;11.98;82.94
57234;BME280;43090;52.604;13.318;2023-05-20T06:40:28;102072.81;;;11.76;84.02
57234;BME280;43090;52.604;13.318;2023-05-20T06:42:54;102076.59;;;12.05;83.05
57234;BME280;43090;52.604;13.318;2023-05-20T06:45:21;102077.25;;;11.77;83.93
57234;BME280;43090;52.604;13.318;2023-05-20T06:47:47;102079.41;;;11.86;83.84
57234;BME280;43090;52.604;13.318;2023-05-20T06:50:15;102081.94;;;11.89;83.58
57234;BME280;43090;52.604;13.318;2023-05-20T06:52:41;102073.25;;;12.02;83.08
57234;BME280;43090;52.604;13.318;2023-05-20T06:55:08;102071.69;;;11.80;85.15
57234;BME280;43090;52.604;13.318;2023-05-20T06:57:34;102078.44;;;12.05;85.13
57234;BME280;43090;52.604;13.318;2023-05-20T07:00:03;102059.50;;;11.90;85.42
57234;BME280;43090;52.604;13.318;2023-05-20T07:02:32;102072.63;;;12.12;84.73
57234;BME280;43090;52.604;13.318;2023-05-20T07:04:59;102066.22;;;12.15;83.54
57234;BME280;43090;52.604;13.318;2023-05-20T07:07:25;102075.56;;;12.08;84.76
57234;BME280;43090;52.604;13.318;2023-05-20T07:09:53;102074.53;;;12.26;83.79
57234;BME280;43090;52.604;13.318;2023-05-20T07:12:19;102079.47;;;12.34;82.61
57234;BME280;43090;52.604;13.318;2023-05-20T07:14:46;102075.50;;;12.25;83.12
57234;BME280;43090;52.604;13.318;2023-05-20T07:17:12;102086.97;;;12.59;81.86
57234;BME280;43090;52.604;13.318;2023-05-20T07:19:39;102078.56;;;12.65;81.01
57234;BME280;43090;52.604;13.318;2023-05-20T07:22:06;102073.22;;;12.33;82.71
57234;BME280;43090;52.604;13.318;2023-05-20T07:24:32;102077.09;;;12.60;82.67
57234;BME280;43090;52.604;13.318;2023-05-20T07:26:59;102071.59;;;12.31;84.69
57234;BME280;43090;52.604;13.318;2023-05-20T07:29:25;102080.31;;;12.50;83.37
57234;BME280;43090;52.604;13.318;2023-05-20T07:31:52;102074.13;;;12.64;82.14
57234;BME280;43090;52.604;13.318;2023-05-20T07:34:19;102090.84;;;12.70;83.00
57234;BME280;43090;52.604;13.318;2023-05-20T07:36:45;102085.47;;;12.70;82.56
57234;BME280;43090;52.604;13.318;2023-05-20T07:39:14;102081.56;;;12.75;83.31
57234;BME280;43090;52.604;13.318;2023-05-20T07:41:41;102065.72;;;12.71;82.91
57234;BME280;43090;52.604;13.318;2023-05-20T07:44:07;102070.31;;;12.69;83.13
57234;BME280;43090;52.604;13.318;2023-05-20T07:46:36;102058.25;;;12.76;83.31
57234;BME280;43090;52.604;13.318;2023-05-20T07:49:10;102055.78;;;12.87;82.04
57234;BME280;43090;52.604;13.318;2023-05-20T07:51:36;102061.28;;;13.00;81.29
57234;BME280;43090;52.604;13.318;2023-05-20T07:54:03;102070.31;;;12.99;82.06
57234;BME280;43090;52.604;13.318;2023-05-20T07:56:30;102061.19;;;13.02;80.87
57234;BME280;43090;52.604;13.318;2023-05-20T07:58:58;102061.06;;;13.19;79.57
57234;BME280;43090;52.604;13.318;2023-05-20T08:01:25;102057.34;;;12.91;81.17
57234;BME280;43090;52.604;13.318;2023-05-20T08:03:52;102041.81;;;13.25;80.60
57234;BME280;43090;52.604;13.318;2023-05-20T08:06:20;102053.47;;;13.26;79.59
57234;BME280;43090;52.604;13.318;2023-05-20T08:08:46;102047.19;;;13.11;80.16
57234;BME280;43090;52.604;13.318;2023-05-20T08:11:13;102046.19;;;13.42;78.93
57234;BME280;43090;52.604;13.318;2023-05-20T08:13:42;102051.69;;;13.41;79.48
57234;BME280;43090;52.604;13.318;2023-05-20T08:16:08;102049.47;;;13.62;78.26
57234;BME280;43090;52.604;13.318;2023-05-20T08:18:35;102040.03;;;13.69;77.18
57234;BME280;43090;52.604;13.318;2023-05-20T08:21:04;102041.97;;;13.67;77.81
57234;BME280;43090;52.604;13.318;2023-05-20T08:23:33;102046.28;;;13.70;79.15
57234;BME280;43090;52.604;13.318;2023-05-20T08:26:04;102028.88;;;13.75;79.32
57234;BME280;43090;52.604;13.318;2023-05-20T08:28:30;102038.44;;;14.36;76.94
57234;BME280;43090;52.604;13.318;2023-05-20T08:31:00;102029.13;;;13.99;76.29
57234;BME280;43090;52.604;13.318;2023-05-20T08:33:26;102022.84;;;14.13;74.84
57234;BME280;43090;52.604;13.318;2023-05-20T08:35:53;102025.63;;;14.12;76.79
57234;BME280;43090;52.604;13.318;2023-05-20T08:38:20;102023.59;;;14.43;75.59
57234;BME280;43090;52.604;13.318;2023-05-20T08:40:54;102020.50;;;14.22;76.66
57234;BME280;43090;52.604;13.318;2023-05-20T08:43:24;102020.38;;;14.23;77.00
57234;BME280;43090;52.604;13.318;2023-05-20T08:45:51;102029.34;;;14.24;75.61
57234;BME280;43090;52.604;13.318;2023-05-20T08:48:18;102026.59;;;14.38;76.15
57234;BME280;43090;52.604;13.318;2023-05-20T08:50:50;102017.13;;;14.45;75.83
57234;BME280;43090;52.604;13.318;2023-05-20T08:53:17;102000.00;;;14.19;77.44
57234;BME280;43090;52.604;13.318;2023-05-20T08:56:14;102012.53;;;14.20;76.00
57234;BME280;43090;52.604;13.318;2023-05-20T08:58:41;102006.16;;;14.21;74.82
57234;BME280;43090;52.604;13.318;2023-05-20T09:01:08;102015.44;;;14.57;72.65
57234;BME280;43090;52.604;13.318;2023-05-20T09:03:35;102011.56;;;14.61;74.48
57234;BME280;43090;52.604;13.318;2023-05-20T09:06:15;102003.75;;;14.84;74.03
57234;BME280;43090;52.604;13.318;2023-05-20T09:08:42;101997.38;;;14.72;72.90
57234;BME280;43090;52.604;13.318;2023-05-20T09:11:11;102009.44;;;14.66;73.36
57234;BME280;43090;52.604;13.318;2023-05-20T09:13:37;102004.44;;;14.60;72.72
57234;BME280;43090;52.604;13.318;2023-05-20T09:16:04;102012.91;;;14.69;73.04
57234;BME280;43090;52.604;13.318;2023-05-20T09:18:31;102014.44;;;14.98;71.92
57234;BME280;43090;52.604;13.318;2023-05-20T09:21:03;102003.22;;;14.92;72.79
57234;BME280;43090;52.604;13.318;2023-05-20T09:23:31;102014.91;;;15.18;70.45
57234;BME280;43090;52.604;13.318;2023-05-20T09:25:59;102017.59;;;14.92;70.35
57234;BME280;43090;52.604;13.318;2023-05-20T09:28:26;102012.91;;;14.81;72.11
57234;BME280;43090;52.604;13.318;2023-05-20T09:30:59;102015.09;;;15.02;72.32
57234;BME280;43090;52.604;13.318;2023-05-20T09:33:29;102011.28;;;14.79;73.85
57234;BME280;43090;52.604;13.318;2023-05-20T09:36:02;102008.69;;;14.64;74.02
57234;BME280;43090;52.604;13.318;2023-05-20T09:38:33;101996.75;;;14.69;73.83
57234;BME280;43090;52.604;13.318;2023-05-20T09:41:06;102009.09;;;14.58;75.89
57234;BME280;43090;52.604;13.318;2023-05-20T09:43:34;102002.91;;;14.83;73.31
57234;BME280;43090;52.604;13.318;2023-05-20T09:46:03;102009.09;;;14.58;75.79
57234;BME280;43090;52.604;13.318;2023-05-20T09:48:30;102003.47;;;15.02;72.88
57234;BME280;43090;52.604;13.318;2023-05-20T09:51:00;101988.31;;;14.73;76.04
57234;BME280;43090;52.604;13.318;2023-05-20T09:53:28;102004.75;;;14.83;74.94
57234;BME280;43090;52.604;13.318;2023-05-20T09:55:54;102003.28;;;14.64;76.58
57234;BME280;43090;52.604;13.318;2023-05-20T09:58:22;102002.69;;;14.74;75.41
57234;BME280;43090;52.604;13.318;2023-05-20T10:00:52;101994.94;;;14.82;73.57
57234;BME280;43090;52.604;13.318;2023-05-20T10:03:22;101996.34;;;15.01;72.31
57234;BME280;43090;52.604;13.318;2023-05-20T10:14:10;102015.09;;;14.89;74.56
57234;BME280;43090;52.604;13.318;2023-05-20T10:17:12;101998.81;;;15.04;75.04
57234;BME280;43090;52.604;13.318;2023-05-20T10:19:41;102013.78;;;14.69;77.00
57234;BME280;43090;52.604;13.318;2023-05-20T10:22:09;101990.91;;;14.75;77.77
57234;BME280;43090;52.604;13.318;2023-05-20T10:24:41;101996.88;;;14.93;77.83
57234;BME280;43090;52.604;13.318;2023-05-20T10:27:12;101997.44;;;15.11;72.44
57234;BME280;43090;52.604;13.318;2023-05-20T10:29:54;101992.13;;;15.35;72.32
57234;BME280;43090;52.604;13.318;2023-05-20T10:32:31;101984.13;;;15.21;73.13
57234;BME280;43090;52.604;13.318;2023-05-20T10:35:01;101981.09;;;15.25;72.67
57234;BME280;43090;52.604;13.318;2023-05-20T10:37:41;101981.63;;;15.30;72.29
57234;BME280;43090;52.604;13.318;2023-05-20T10:40:11;101978.94;;;15.43;70.96
57234;BME280;43090;52.604;13.318;2023-05-20T10:42:39;101979.47;;;15.36;72.06
57234;BME280;43090;52.604;13.318;2023-05-20T10:45:06;101981.56;;;15.19;73.54
57234;BME280;43090;52.604;13.318;2023-05-20T10:47:34;101968.38;;;15.14;73.01
57234;BME280;43090;52.604;13.318;2023-05-20T10:50:01;101969.25;;;15.15;73.37
57234;BME280;43090;52.604;13.318;2023-05-20T10:52:35;101957.50;;;15.03;74.01
57234;BME280;43090;52.604;13.318;2023-05-20T10:55:02;101958.78;;;15.23;72.25
57234;BME280;43090;52.604;13.318;2023-05-20T10:57:33;101946.53;;;15.56;71.92
57234;BME280;43090;52.604;13.318;2023-05-20T10:59:59;101950.84;;;15.46;71.50
57234;BME280;43090;52.604;13.318;2023-05-20T11:02:26;101956.81;;;15.38;72.98
57234;BME280;43090;52.604;13.318;2023-05-20T11:04:57;101959.84;;;15.33;72.40
57234;BME280;43090;52.604;13.318;2023-05-20T11:07:28;101948.59;;;15.40;74.66
57234;BME280;43090;52.604;13.318;2023-05-20T11:09:56;101957.84;;;15.61;72.97
57234;BME280;43090;52.604;13.318;2023-05-20T11:12:24;101957.09;;;15.46;74.14
57234;BME280;43090;52.604;13.318;2023-05-20T11:14:52;101952.16;;;15.53;71.68
57234;BME280;43090;52.604;13.318;2023-05-20T11:17:19;101943.06;;;15.91;71.18
57234;BME280;43090;52.604;13.318;2023-05-20T11:19:47;101947.94;;;15.86;73.42
57234;BME280;43090;52.604;13.318;2023-05-20T11:22:13;101941.91;;;16.07;69.63
57234;BME280;43090;52.604;13.318;2023-05-20T11:24:40;101948.56;;;16.14;70.86
57234;BME280;43090;52.604;13.318;2023-05-20T11:27:07;101926.50;;;16.20;69.83
57234;BME280;43090;52.604;13.318;2023-05-20T11:29:33;101928.56;;;16.52;69.89
57234;BME280;43090;52.604;13.318;2023-05-20T11:32:00;101925.47;;;16.92;66.15
57234;BME280;43090;52.604;13.318;2023-05-20T11:34:34;101934.00;;;16.63;69.45
57234;BME280;43090;52.604;13.318;2023-05-20T11:37:06;101927.97;;;16.60;66.87
57234;BME280;43090;52.604;13.318;2023-05-20T11:39:36;101934.63;;;16.78;66.75
57234;BME280;43090;52.604;13.318;2023-05-20T11:42:03;101922.97;;;16.89;67.20
57234;BME280;43090;52.604;13.318;2023-05-20T11:44:31;101924.13;;;16.98;66.72
57234;BME280;43090;52.604;13.318;2023-05-20T11:47:00;101921.53;;;17.08;66.33
57234;BME280;43090;52.604;13.318;2023-05-20T11:49:27;101922.28;;;17.44;63.29
57234;BME280;43090;52.604;13.318;2023-05-20T11:51:54;101917.59;;;17.23;65.20
57234;BME280;43090;52.604;13.318;2023-05-20T11:54:21;101912.69;;;17.40;65.61
57234;BME280;43090;52.604;13.318;2023-05-20T11:56:52;101929.81;;;17.84;61.29
57234;BME280;43090;52.604;13.318;2023-05-20T11:59:22;101915.00;;;17.56;61.20
57234;BME280;43090;52.604;13.318;2023-05-20T12:01:49;101918.66;;;16.87;65.22
57234;BME280;43090;52.604;13.318;2023-05-20T12:04:18;101913.66;;;16.93;64.99
57234;BME280;43090;52.604;13.318;2023-05-20T12:06:45;101915.97;;;16.87;67.55
57234;BME280;43090;52.604;13.318;2023-05-20T12:09:12;101911.06;;;16.80;65.65
57234;BME280;43090;52.604;13.318;2023-05-20T12:11:39;101909.28;;;16.68;68.45
57234;BME280;43090;52.604;13.318;2023-05-20T12:14:07;101903.78;;;16.70;66.79
57234;BME280;43090;52.604;13.318;2023-05-20T12:16:34;101893.19;;;16.66;66.98
57234;BME280;43090;52.604;13.318;2023-05-20T12:19:01;101890.38;;;16.68;67.88
57234;BME280;43090;52.604;13.318;2023-05-20T12:21:28;101893.72;;;17.17;64.86
57234;BME280;43090;52.604;13.318;2023-05-20T12:23:55;101888.75;;;17.68;64.68
57234;BME280;43090;52.604;13.318;2023-05-20T12:26:26;101879.66;;;17.90;61.23
57234;BME280;43090;52.604;13.318;2023-05-20T12:28:53;101874.28;;;18.11;59.04
57234;BME280;43090;52.604;13.318;2023-05-20T12:31:20;101875.63;;;18.17;59.77
57234;BME280;43090;52.604;13.318;2023-05-20T12:33:46;101878.13;;;17.64;61.91
57234;BME280;43090;52.604;13.318;2023-05-20T12:36:13;101872.91;;;17.84;63.22
57234;BME280;43090;52.604;13.318;2023-05-20T12:38:40;101863.53;;;17.88;63.07
57234;BME280;43090;52.604;13.318;2023-05-20T12:41:06;101868.00;;;17.78;63.10
57234;BME280;43090;52.604;13.318;2023-05-20T12:43:34;101863.94;;;17.84;63.74
57234;BME280;43090;52.604;13.318;2023-05-20T12:46:02;101861.25;;;17.72;61.65
57234;BME280;43090;52.604;13.318;2023-05-20T12:48:28;101857.28;;;17.76;62.12
57234;BME280;43090;52.604;13.318;2023-05-20T12:50:55;101849.81;;;17.69;61.05
57234;BME280;43090;52.604;13.318;2023-05-20T12:53:22;101851.88;;;17.44;62.18
57234;BME280;43090;52.604;13.318;2023-05-20T12:55:48;101849.22;;;17.65;63.58
57234;BME280;43090;52.604;13.318;2023-05-20T12:58:15;101845.50;;;18.10;62.60
57234;BME280;43090;52.604;13.318;2023-05-20T13:00:41;101840.00;;;18.00;62.88
57234;BME280;43090;52.604;13.318;2023-05-20T13:03:08;101823.59;;;18.23;61.37
57234;BME280;43090;52.604;13.318;2023-05-20T13:05:35;101825.81;;;18.39;60.28
57234;BME280;43090;52.604;13.318;2023-05-20T13:08:01;101822.97;;;18.61;59.86